DW1779 Weather Reports


Display with metric or nautical units.
time (UTC)temp
F
wind
direction
speed
MPH
gust
MPH
rain 1hr
in
rain 24hr
in
rain mn
in
humidity
%
barometer
mb
20210613202038 88 347 3.0 10.0 0.00 0.00 0.00 42 1014.3
20210613201540 88 31 1.0 8.0 0.00 0.00 0.00 43 1014.3
20210613201033 88 350 4.0 9.0 0.00 0.00 0.00 41 1014.5
20210613200233 88 5 4.0 11.0 0.00 0.00 0.00 39 1014.6
20210613195556 88 53 3.0 10.0 0.00 0.00 0.00 41 1014.6
20210613195100 88 347 1.0 5.0 0.00 0.00 0.00 44 1014.6
20210613194653 88 311 1.0 6.0 0.00 0.00 0.00 42 1014.7
20210613194054 87 345 4.0 7.0 0.00 0.00 0.00 43 1014.9
20210613193559 87 328 3.0 8.0 0.00 0.00 0.00 40 1014.9
20210613193220 87 14 3.0 10.0 0.00 0.00 0.00 41 1014.9
20210613192553 87 349 5.0 10.0 0.00 0.00 0.00 40 1015.0
20210613192052 87 42 3.0 9.0 0.00 0.00 0.00 45 1015.1
20210613191646 87 351 3.0 8.0 0.00 0.00 0.00 46 1015.1
20210613191102 87 355 3.0 8.0 0.00 0.00 0.00 44 1015.2
20210613190210 86 10 2.0 9.0 0.00 0.00 0.00 44 1015.2
20210613185557 86 306 3.0 10.0 0.00 0.00 0.00 43 1015.3
20210613185050 86 360 3.0 10.0 0.00 0.00 0.00 47 1015.2
20210613184708 86 304 1.0 10.0 0.00 0.00 0.00 43 1015.4
20210613184055 86 46 2.0 8.0 0.00 0.00 0.00 45 1015.4
20210613183549 86 291 2.0 11.0 0.00 0.00 0.00 44 1015.4
20210613183122 86 181 1.0 11.0 0.00 0.00 0.00 43 1015.5
20210613182620 86 88 4.0 11.0 0.00 0.00 0.00 44 1015.5
20210613182107 85 71 2.0 8.0 0.00 0.00 0.00 46 1015.4
20210613181644 85 355 2.0 9.0 0.00 0.00 0.00 45 1015.5
20210613181057 85 319 3.0 11.0 0.00 0.00 0.00 45 1015.5
20210613180125 85 5 0.0 11.0 0.00 0.00 0.00 43 1015.8
20210613175555 85 12 3.0 11.0 0.00 0.00 0.00 44 1015.8
20210613175133 85 334 1.0 9.0 0.00 0.00 0.00 45 1015.8
20210613174701 85 28 4.0 9.0 0.00 0.00 0.00 42 1015.8
20210613174058 85 360 1.0 11.0 0.00 0.00 0.00 46 1015.8
20210613173552 85 340 4.0 11.0 0.00 0.00 0.00 44 1015.8
20210613173238 84 20 3.0 12.0 0.00 0.00 0.00 44 1015.9
20210613172553 85 15 5.0 12.0 0.00 0.00 0.00 42 1015.9
20210613172050 85 346 5.0 12.0 0.00 0.00 0.00 43 1016.0
20210613171616 84 338 4.0 12.0 0.00 0.00 0.00 44 1015.8
20210613171105 84 275 5.0 13.0 0.00 0.00 0.00 44 1015.9
20210613170126 84 348 6.0 13.0 0.00 0.00 0.00 42 1015.9
20210613165558 84 311 6.0 13.0 0.00 0.00 0.00 44 1015.9
20210613165057 83 9 3.0 13.0 0.00 0.00 0.00 45 1015.8
20210613164646 83 336 6.0 13.0 0.00 0.00 0.00 41 1015.7
20210613164059 83 342 6.0 13.0 0.00 0.00 0.00 45 1015.8
20210613163600 83 320 5.0 13.0 0.00 0.00 0.00 46 1015.9
20210613163248 83 30 6.0 13.0 0.00 0.00 0.00 46 1015.7
20210613163117 83 336 5.0 13.0 0.00 0.00 0.00 46 1015.7
20210613162620 83 302 3.0 13.0 0.00 0.00 0.00 47 1015.8
20210613162104 83 325 5.0 13.0 0.00 0.00 0.00 43 1015.7
20210613161642 83 294 3.0 8.0 0.00 0.00 0.00 47 1015.7
20210613161043 82 345 2.0 9.0 0.00 0.00 0.00 52 1015.6
20210613160145 82 337 3.0 16.0 0.00 0.00 0.00 46 1015.7
20210613155552 82 360 7.0 16.0 0.00 0.00 0.00 46 1015.6
20210613155051 82 315 6.0 12.0 0.00 0.00 0.00 50 1015.5
20210613154612 82 326 4.0 13.0 0.00 0.00 0.00 48 1015.5
20210613154048 81 268 6.0 13.0 0.00 0.00 0.00 46 1015.5
20210613153548 81 318 4.0 9.0 0.00 0.00 0.00 54 1015.5
20210613153115 81 336 3.0 10.0 0.00 0.00 0.00 53 1015.5
20210613152545 81 316 2.0 14.0 0.00 0.00 0.00 54 1015.6
20210613152044 80 46 4.0 14.0 0.00 0.00 0.00 53 1015.6
20210613151805 80 337 4.0 13.0 0.00 0.00 0.00 52 1015.7
20210613151041 80 360 5.0 11.0 0.00 0.00 0.00 55 1015.6
20210613150140 79 333 2.0 11.0 0.00 0.00 0.00 55 1015.7
20210613145557 79 331 3.0 10.0 0.00 0.00 0.00 58 1015.7
20210613145048 79 320 2.0 10.0 0.00 0.00 0.00 58 1015.6
20210613144629 78 16 4.0 10.0 0.00 0.00 0.00 58 1015.5
20210613144046 78 355 4.0 10.0 0.00 0.00 0.00 59 1015.5
20210613143554 78 348 3.0 9.0 0.00 0.00 0.00 60 1015.5
20210613143147 77 342 4.0 8.0 0.00 0.00 0.00 61 1015.6
20210613142547 77 345 3.0 8.0 0.00 0.00 0.00 64 1015.5
20210613142040 76 346 2.0 10.0 0.00 0.00 0.00 65 1015.5
20210613141606 75 347 4.0 10.0 0.00 0.00 0.00 65 1015.4
20210613141046 75 5 2.0 6.0 0.00 0.00 0.00 69 1015.4
20210613140127 74 328 2.0 6.0 0.00 0.00 0.00 71 1015.5
20210613135543 73 321 2.0 4.0 0.00 0.00 0.00 73 1015.5
20210613135042 73 346 2.0 5.0 0.00 0.00 0.00 72 1015.6
20210613134619 72 344 2.0 5.0 0.00 0.00 0.00 76 1015.6
20210613134039 71 328 1.0 8.0 0.00 0.00 0.00 76 1015.6
20210613133539 71 344 2.0 8.0 0.00 0.00 0.00 78 1015.5
20210613133047 70 320 2.0 5.0 0.00 0.00 0.00 82 1015.4
20210613132537 69 320 0.0 5.0 0.00 0.00 0.00 85 1015.5
20210613132042 69 336 0.0 5.0 0.00 0.00 0.00 88 1015.4
20210613131551 68 327 0.0 3.0 0.00 0.00 0.00 90 1015.3
20210613131052 68 311 1.0 3.0 0.00 0.00 0.00 91 1015.2
20210613130127 67 294 0.0 3.0 0.00 0.00 0.00 91 1015.0
20210613125603 67 300 1.0 4.0 0.00 0.00 0.00 91 1014.9
20210613125123 66 297 1.0 4.0 0.00 0.00 0.00 91 1014.7
20210613124731 66 312 0.0 2.0 0.00 0.00 0.00 91 1014.7
20210613124058 66 312 0.0 5.0 0.00 0.00 0.00 91 1014.7
20210613123555 66 315 0.0 5.0 0.00 0.00 0.00 91 1014.7
20210613123145 65 312 0.0 4.0 0.00 0.00 0.00 91 1014.6
20210613122623 65 302 1.0 3.0 0.00 0.00 0.00 91 1014.6
20210613122052 65 302 0.0 2.0 0.00 0.00 0.00 91 1014.6
20210613121635 64 291 0.0 0.0 0.00 0.00 0.00 91 1014.6
20210613121133 64 291 0.0 0.0 0.00 0.00 0.00 91 1014.4
20210613120244 64 291 0.0 0.0 0.00 0.00 0.00 90 1014.3
20210613115615 64 291 0.0 0.0 0.00 0.00 0.00 90 1014.3
20210613115054 64 291 0.0 0.0 0.00 0.00 0.00 90 1014.3
20210613114745 64 291 0.0 0.0 0.00 0.00 0.00 90 1014.4
20210613114102 64 291 0.0 0.0 0.00 0.00 0.00 90 1014.5
20210613113601 64 291 0.0 0.0 0.00 0.00 0.00 90 1014.4
20210613113121 64 291 0.0 0.0 0.00 0.00 0.00 89 1014.4
20210613112607 64 291 0.0 0.0 0.00 0.00 0.00 89 1014.3
20210613112052 64 291 0.0 0.0 0.00 0.00 0.00 90 1014.4
20210613111613 64 291 0.0 0.0 0.00 0.00 0.00 89 1014.4
20210613111100 64 291 0.0 0.0 0.00 0.00 0.00 89 1014.3
20210613110303 64 291 0.0 0.0 0.00 0.00 0.00 89 1014.1
20210613105552 64 291 0.0 0.0 0.00 0.00 0.00 89 1014.1
20210613105054 64 291 0.0 0.0 0.00 0.00 0.00 89 1014.0
20210613104652 64 291 0.0 0.0 0.00 0.00 0.00 89 1013.9
20210613104050 64 291 0.0 0.0 0.00 0.00 0.00 89 1013.8
20210613103556 64 291 0.0 0.0 0.00 0.00 0.00 89 1013.7
20210613103131 65 291 0.0 0.0 0.00 0.00 0.00 89 1013.7
20210613102555 65 291 0.0 0.0 0.00 0.00 0.00 89 1013.7
20210613102047 65 291 0.0 0.0 0.00 0.00 0.00 89 1013.7
20210613101623 65 291 0.0 0.0 0.00 0.00 0.00 89 1013.8
20210613101047 65 291 0.0 0.0 0.00 0.00 0.00 89 1013.7
20210613100242 65 291 0.0 0.0 0.00 0.00 0.00 89 1013.5
20210613095551 65 291 0.0 0.0 0.00 0.00 0.00 89 1013.5
20210613095050 65 291 0.0 0.0 0.00 0.00 0.00 89 1013.2
20210613094612 65 291 0.0 0.0 0.00 0.00 0.00 89 1013.2
20210613094053 65 291 0.0 0.0 0.00 0.00 0.00 89 1013.0
20210613093545 65 291 0.0 0.0 0.00 0.00 0.00 89 1012.9
20210613093138 65 291 0.0 0.0 0.00 0.00 0.00 89 1012.9
20210613092607 65 291 0.0 0.0 0.00 0.00 0.00 89 1012.9
20210613092053 66 291 0.0 0.0 0.00 0.00 0.00 89 1012.8
20210613091616 66 291 0.0 0.0 0.00 0.00 0.00 89 1012.7
20210613091123 66 291 0.0 0.0 0.00 0.00 0.00 89 1012.6
20210613090124 66 291 0.0 0.0 0.00 0.00 0.00 89 1012.7
20210613085546 66 291 0.0 0.0 0.00 0.00 0.00 89 1012.7
20210613085047 66 291 0.0 0.0 0.00 0.00 0.00 89 1012.7
20210613084741 66 291 0.0 0.0 0.00 0.00 0.00 89 1012.6
20210613084048 66 291 0.0 0.0 0.00 0.00 0.00 89 1012.7
20210613083549 66 291 0.0 0.0 0.00 0.00 0.00 89 1012.8
20210613083127 66 291 0.0 0.0 0.00 0.00 0.00 89 1012.7
20210613082541 66 291 0.0 0.0 0.00 0.00 0.00 88 1012.6
20210613082041 67 291 0.0 0.0 0.00 0.00 0.00 88 1012.6
20210613081551 67 291 0.0 0.0 0.00 0.00 0.00 88 1012.7
20210613081040 67 291 0.0 0.0 0.00 0.00 0.00 88 1012.6
20210613080142 67 291 0.0 0.0 0.00 0.00 0.00 88 1012.9
20210613075555 67 291 0.0 0.0 0.00 0.00 0.00 88 1012.9
20210613075042 67 291 0.0 0.0 0.00 0.00 0.00 88 1012.8
20210613074630 67 291 0.0 0.0 0.00 0.00 0.00 88 1012.8
20210613074135 68 291 0.0 0.0 0.00 0.00 0.00 88 1012.8
20210613073618 68 291 0.0 0.0 0.00 0.00 0.00 88 1012.6
20210613073054 68 291 0.0 0.0 0.00 0.00 0.00 88 1012.6
20210613072542 68 291 0.0 0.0 0.00 0.00 0.00 87 1012.5
20210613072038 68 291 0.0 0.0 0.00 0.00 0.00 87 1012.4
20210613071603 68 291 0.0 0.0 0.00 0.00 0.00 87 1012.4
20210613071038 68 291 0.0 0.0 0.00 0.00 0.00 88 1012.4
20210613070112 68 291 0.0 0.0 0.00 0.00 0.00 88 1012.3
20210613065538 69 291 0.0 0.0 0.00 0.00 0.00 87 1012.2
20210613065038 69 291 0.0 0.0 0.00 0.00 0.00 87 1012.2
20210613064634 69 291 0.0 0.0 0.00 0.00 0.00 87 1012.1
20210613064052 69 291 0.0 0.0 0.00 0.00 0.00 87 1012.1
20210613063537 69 291 0.0 0.0 0.00 0.00 0.00 87 1012.1
20210613063132 69 291 0.0 0.0 0.00 0.00 0.00 87 1012.0
20210613062035 70 291 0.0 0.0 0.00 0.00 0.00 87 1012.1
20210613061546 70 291 0.0 0.0 0.00 0.00 0.00 87 1012.0
20210613061037 70 291 0.0 0.0 0.00 0.00 0.00 86 1012.0
20210613060200 70 291 0.0 0.0 0.00 0.00 0.00 87 1012.0
20210613055601 70 291 0.0 0.0 0.00 0.00 0.00 86 1012.0
20210613055056 71 291 0.0 0.0 0.00 0.00 0.00 86 1012.0
20210613054727 71 291 0.0 0.0 0.00 0.00 0.00 86 1011.9
20210613054055 71 291 0.0 0.0 0.00 0.00 0.00 86 1012.0
20210613053558 71 291 0.0 0.0 0.00 0.00 0.00 86 1012.2
20210613053131 71 291 0.0 0.0 0.00 0.00 0.00 86 1012.3
20210613052557 71 291 0.0 0.0 0.00 0.00 0.00 86 1012.3
20210613052053 72 291 0.0 0.0 0.00 0.00 0.00 86 1012.2
20210613051626 72 291 0.0 0.0 0.00 0.00 0.00 86 1012.1
20210613051054 72 291 0.0 0.0 0.00 0.00 0.00 86 1012.2
20210613050112 72 291 0.0 0.0 0.00 0.00 0.00 86 1012.3
20210613045549 73 291 0.0 0.0 0.00 0.00 0.00 86 1012.3
20210613045050 73 291 0.0 0.0 0.00 0.00 0.00 85 1012.3
20210613044746 73 291 0.0 0.0 0.00 0.00 0.00 85 1012.3
20210613044047 73 291 0.0 0.0 0.00 0.00 0.00 85 1012.3
20210613043546 74 291 0.0 0.0 0.00 0.00 0.00 85 1012.4
20210613043141 74 291 0.0 0.0 0.00 0.00 0.00 85 1012.5
20210613042555 74 291 0.0 0.0 0.00 0.00 0.00 85 1012.4
20210613042045 74 291 0.0 0.0 0.00 0.00 0.00 84 1012.4
20210613041756 75 291 0.0 0.0 0.00 0.00 0.00 84 1012.5
20210613041054 75 291 0.0 0.0 0.00 0.00 0.00 84 1012.4
20210613040126 75 291 0.0 0.0 0.00 0.00 0.00 84 1012.5
20210613035545 75 291 0.0 0.0 0.00 0.00 0.00 84 1012.5
20210613035045 76 291 0.0 0.0 0.00 0.00 0.00 84 1012.4
20210613034612 76 291 0.0 0.0 0.00 0.00 0.00 84 1012.5
20210613034051 76 291 0.0 0.0 0.00 0.00 0.00 84 1012.5
20210613033554 76 291 0.0 0.0 0.00 0.00 0.00 84 1012.4
20210613033204 77 291 0.0 0.0 0.00 0.00 0.00 84 1012.5
20210613032546 77 291 0.0 0.0 0.00 0.00 0.00 84 1012.4
20210613032044 77 291 0.0 0.0 0.00 0.00 0.00 83 1012.5
20210613031743 77 291 0.0 0.0 0.00 0.00 0.00 84 1012.5
20210613031043 77 291 0.0 0.0 0.00 0.00 0.00 83 1012.3
20210613030138 78 291 0.0 0.0 0.00 0.00 0.00 83 1012.2
20210613025624 78 291 0.0 0.0 0.00 0.00 0.00 82 1012.1
20210613025041 78 291 0.0 0.0 0.00 0.00 0.00 82 1012.1
20210613024701 79 291 0.0 0.0 0.00 0.00 0.00 82 1011.9
20210613024046 79 291 0.0 0.0 0.00 0.00 0.00 81 1011.9
20210613023542 79 291 0.0 0.0 0.00 0.00 0.00 81 1011.6
20210613023112 79 291 0.0 0.0 0.00 0.00 0.00 81 1011.6
20210613022540 80 291 0.0 0.0 0.00 0.00 0.00 80 1011.5
20210613022040 80 291 0.0 0.0 0.00 0.00 0.00 80 1011.4
20210613021615 80 291 0.0 0.0 0.00 0.00 0.00 80 1011.3
20210613021040 81 291 0.0 0.0 0.00 0.00 0.00 79 1011.2
20210613020052 81 291 0.0 0.0 0.00 0.00 0.00 79 1011.0
20210613015539 82 291 0.0 0.0 0.00 0.00 0.00 78 1011.0
20210613015039 82 291 0.0 1.0 0.00 0.00 0.00 77 1010.9
20210613014556 82 291 0.0 1.0 0.00 0.00 0.00 77 1010.9
20210613014038 83 291 0.0 1.0 0.00 0.00 0.00 77 1010.7
20210613013538 83 291 0.0 1.0 0.00 0.00 0.00 76 1010.7
20210613013119 84 291 0.0 1.0 0.00 0.00 0.00 75 1010.6
20210613012545 84 291 0.0 0.0 0.00 0.00 0.00 76 1010.6
20210613012038 84 291 0.0 0.0 0.00 0.00 0.00 76 1010.4
20210613011813 84 291 0.0 0.0 0.00 0.00 0.00 75 1010.3
20210613011054 85 291 0.0 0.0 0.00 0.00 0.00 75 1010.2
20210613010125 85 291 0.0 0.0 0.00 0.00 0.00 74 1010.2
20210613005536 85 291 0.0 0.0 0.00 0.00 0.00 75 1010.3
20210613005035 85 291 0.0 1.0 0.00 0.00 0.00 72 1010.3
20210613004629 85 291 0.0 3.0 0.00 0.00 0.00 71 1010.3
20210613004039 85 291 1.0 4.0 0.00 0.00 0.00 70 1010.2
20210613003536 86 291 1.0 4.0 0.00 0.00 0.00 70 1010.2
20210613003054 86 292 1.0 5.0 0.00 0.00 0.00 70 1010.1
20210613002540 86 290 0.0 5.0 0.00 0.00 0.00 70 1010.2
20210613002048 86 326 0.0 3.0 0.00 0.00 0.00 72 1010.1
20210613001624 86 307 0.0 6.0 0.00 0.00 0.00 72 1010.0
20210613001041 85 315 1.0 6.0 0.00 0.00 0.00 73 1010.1
20210613000048 85 298 0.0 0.0 0.00 0.00 0.00 73 1010.0
20210612235532 85 298 0.0 0.0 0.00 0.00 0.00 72 1009.9
20210612235041 85 298 0.0 0.0 0.00 0.00 0.00 71 1010.0
20210612234551 86 298 0.0 4.0 0.00 0.00 0.00 70 1009.8
20210612234035 86 298 0.0 4.0 0.00 0.00 0.00 69 1009.8
20210612233532 86 290 0.0 5.0 0.00 0.00 0.00 69 1009.8
20210612233145 87 298 1.0 5.0 0.00 0.00 0.00 69 1009.9
20210612232531 87 275 2.0 6.0 0.00 0.00 0.00 68 1009.9
20210612232036 87 289 1.0 4.0 0.00 0.00 0.00 69 1009.8
20210612231622 87 291 2.0 4.0 0.00 0.00 0.00 68 1009.9
20210612231038 87 294 1.0 9.0 0.00 0.00 0.00 68 1009.9
20210612230219 88 300 2.0 8.0 0.00 0.00 0.00 66 1009.9
20210612225552 88 304 1.0 9.0 0.00 0.00 0.00 67 1009.9
20210612225053 88 307 3.0 9.0 0.00 0.00 0.00 68 1010.0
20210612224603 88 286 3.0 8.0 0.00 0.00 0.00 67 1010.0
20210612224051 88 292 4.0 8.0 0.00 0.00 0.00 66 1009.9
20210612223550 89 300 3.0 8.0 0.00 0.00 0.00 65 1010.0
20210612223119 89 303 2.0 5.0 0.00 0.00 0.00 63 1010.0
20210612222550 89 340 2.0 8.0 0.00 0.00 0.00 63 1010.0
20210612222048 89 319 3.0 10.0 0.00 0.00 0.00 62 1010.1
20210612221711 89 318 2.0 10.0 0.00 0.00 0.00 63 1010.1
20210612221048 90 291 4.0 10.0 0.00 0.00 0.00 64 1010.0
20210612220137 90 318 5.0 9.0 0.00 0.00 0.00 63 1010.0
20210612215551 90 323 4.0 10.0 0.00 0.00 0.00 60 1010.0
20210612215046 90 295 3.0 10.0 0.00 0.00 0.00 64 1010.0
20210612214727 90 350 2.0 8.0 0.00 0.00 0.00 61 1010.0
20210612214045 90 346 3.0 9.0 0.00 0.00 0.00 61 1010.1
20210612213545 90 323 3.0 9.0 0.00 0.00 0.00 61 1010.1
20210612213138 90 340 2.0 8.0 0.00 0.00 0.00 64 1010.1
20210612212545 89 302 0.0 5.0 0.00 0.00 0.00 67 1010.2
20210612212045 89 313 2.0 7.0 0.00 0.00 0.00 63 1010.3
20210612211641 90 326 2.0 7.0 0.00 0.00 0.00 65 1010.3
20210612211046 90 309 2.0 10.0 0.00 0.00 0.00 66 1010.3
20210612210130 89 327 2.0 8.0 0.00 0.00 0.00 61 1010.3
20210612205548 90 332 2.0 8.0 0.00 0.00 0.00 63 1010.4
20210612205043 90 13 2.0 5.0 0.00 0.00 0.00 63 1010.5
20210612204634 90 298 1.0 9.0 0.00 0.00 0.00 61 1010.5
20210612204044 90 318 4.0 9.0 0.00 0.00 0.00 60 1010.6
20210612203542 90 345 0.0 6.0 0.00 0.00 0.00 61 1010.6
20210612203137 90 346 1.0 8.0 0.00 0.00 0.00 61 1010.6
20210612202544 90 321 1.0 9.0 0.00 0.00 0.00 63 1010.6